Time;durP1;ratioP1;P1;durP2;ratioP2;P2;SDS_P1;SDS_P2;PMS_P1;PMS_P2;Temp;Humidity;BMP_temperature;BMP_pressure;BME280_temperature;BME280_humidity;BME280_pressure;Samples;Min_cycle;Max_cycle;Signal;HPM_P1;HPM_P2
2023/04/12 05:48:12;;;;;;;;;;;;;;;9.36;67.83;97293.91;4952048;29;20013;-64
2023/04/12 05:50:37;;;;;;;;;;;;;;;9.33;67.99;97285.47;4968857;28;19922;-64
2023/04/12 05:53:02;;;;;;;;;;;;;;;9.25;68.70;97279.03;4971154;28;19922;-65
2023/04/12 05:55:28;;;;;;;;;;;;;;;9.18;68.73;97280.47;4948279;28;19929;-65
2023/04/12 05:57:53;;;;;;;;;;;;;;;9.15;70.09;97280.72;4942609;28;19918;-62
2023/04/12 06:00:18;;;;;;;;;;;;;;;9.11;70.71;97294.97;4954459;29;19965;-65
2023/04/12 06:02:44;;;;;;;;;;;;;;;9.10;70.22;97287.25;4954600;29;19918;-63
2023/04/12 06:05:10;;;;;;;;;;;;;;;9.10;70.70;97293.31;4951949;28;19922;-65
2023/04/12 06:07:36;;;;;;;;;;;;;;;9.06;70.66;97278.81;4954839;28;19938;-65
2023/04/12 06:10:01;;;;;;;;;;;;;;;9.03;71.12;97281.66;4954151;29;20363;-64
2023/04/12 06:12:26;;;;;;;;;;;;;;;9.03;71.21;97276.44;4955464;28;19921;-64
2023/04/12 06:14:51;;;;;;;;;;;;;;;9.01;71.12;97263.44;4954989;29;20312;-64
2023/04/12 06:17:17;;;;;;;;;;;;;;;9.07;71.54;97263.94;4953161;28;19918;-64
2023/04/12 06:19:42;;;;;;;;;;;;;;;9.07;71.81;97264.78;4955316;28;19921;-66
2023/04/12 06:22:07;;;;;;;;;;;;;;;9.12;72.14;97254.81;4955388;28;19914;-63
2023/04/12 06:24:32;;;;;;;;;;;;;;;9.17;71.79;97250.03;4954070;28;20311;-64
2023/04/12 06:26:58;;;;;;;;;;;;;;;9.22;71.89;97242.66;4943858;28;20001;-64
2023/04/12 06:29:23;;;;;;;;;;;;;;;9.25;71.51;97250.25;4952931;29;19919;-65
2023/04/12 06:31:48;;;;;;;;;;;;;;;9.30;71.92;97249.09;4955001;28;19970;-65
2023/04/12 06:34:14;;;;;;;;;;;;;;;9.36;72.58;97256.44;4952659;28;20124;-65
2023/04/12 06:36:40;;;;;;;;;;;;;;;9.42;72.32;97253.34;4950866;28;19958;-65
2023/04/12 06:39:06;;;;;;;;;;;;;;;9.43;72.15;97237.53;4953250;28;19919;-66
2023/04/12 06:41:31;;;;;;;;;;;;;;;9.46;72.05;97241.66;4953809;29;20371;-66
2023/04/12 06:43:56;;;;;;;;;;;;;;;9.48;72.21;97239.78;4951371;29;19918;-66
2023/04/12 06:46:25;;;;;;;;;;;;;;;9.48;72.25;97234.53;4954103;28;19960;-66
2023/04/12 06:48:50;;;;;;;;;;;;;;;9.42;72.35;97245.47;4953533;29;19921;-66
2023/04/12 06:51:16;;;;;;;;;;;;;;;9.40;73.06;97239.56;4954948;29;20459;-67
2023/04/12 06:53:41;;;;;;;;;;;;;;;9.41;72.99;97239.41;4954803;28;20357;-66
2023/04/12 06:56:06;;;;;;;;;;;;;;;9.42;73.02;97229.78;4953696;28;19926;-66
2023/04/12 06:58:31;;;;;;;;;;;;;;;9.44;72.93;97225.28;4954618;29;19921;-66
2023/04/12 07:01:04;;;;;;;;;;;;;;;9.47;72.79;97211.94;4954871;29;19915;-66
2023/04/12 07:03:32;;;;;;;;;;;;;;;9.51;72.70;97208.13;4953628;29;19915;-66
2023/04/12 07:05:58;;;;;;;;;;;;;;;9.55;72.76;97204.28;4954681;28;20407;-66
2023/04/12 07:08:24;;;;;;;;;;;;;;;9.57;72.36;97199.78;4954422;28;19957;-66
2023/04/12 07:10:52;;;;;;;;;;;;;;;9.63;72.68;97193.19;4953401;29;20288;-66
2023/04/12 07:13:18;;;;;;;;;;;;;;;9.64;72.72;97190.47;4954504;28;19919;-66
2023/04/12 07:15:43;;;;;;;;;;;;;;;9.68;71.97;97194.50;4954461;28;19921;-66
2023/04/12 07:18:08;;;;;;;;;;;;;;;9.70;71.88;97189.97;4954000;28;19915;-66
2023/04/12 07:20:33;;;;;;;;;;;;;;;9.74;72.79;97191.38;4954423;29;19962;-66
2023/04/12 07:22:58;;;;;;;;;;;;;;;9.81;72.49;97185.66;4954829;29;19914;-66
2023/04/12 07:25:24;;;;;;;;;;;;;;;9.81;72.21;97191.72;4954393;29;19918;-66
2023/04/12 07:27:49;;;;;;;;;;;;;;;9.71;72.98;97181.16;4954129;28;19970;-66
2023/04/12 07:30:14;;;;;;;;;;;;;;;9.78;73.06;97175.44;4954350;28;19925;-66
2023/04/12 07:32:40;;;;;;;;;;;;;;;9.87;73.34;97172.88;4954210;29;19974;-66
2023/04/12 07:35:05;;;;;;;;;;;;;;;9.96;72.43;97172.13;4954302;29;19915;-67
2023/04/12 07:37:30;;;;;;;;;;;;;;;10.07;71.98;97165.16;4953860;28;20419;-66
2023/04/12 07:39:56;;;;;;;;;;;;;;;10.15;71.29;97160.97;4953100;29;19922;-67
2023/04/12 07:42:21;;;;;;;;;;;;;;;10.21;71.07;97163.03;4954171;29;20287;-65
2023/04/12 07:44:46;;;;;;;;;;;;;;;10.31;70.02;97162.31;4954199;29;19915;-66
2023/04/12 07:47:11;;;;;;;;;;;;;;;10.39;70.02;97157.25;4953707;28;19925;-66
2023/04/12 07:49:36;;;;;;;;;;;;;;;10.47;70.15;97159.25;4954140;29;20402;-66
2023/04/12 07:52:02;;;;;;;;;;;;;;;10.53;70.62;97151.69;4954058;29;20380;-66
2023/04/12 07:54:27;;;;;;;;;;;;;;;10.58;70.83;97146.06;4953947;29;20400;-66
2023/04/12 07:56:59;;;;;;;;;;;;;;;10.65;69.25;97140.16;4952890;28;20304;-66
2023/04/12 07:59:25;;;;;;;;;;;;;;;10.74;69.11;97137.72;4952902;29;19969;-67
2023/04/12 08:01:50;;;;;;;;;;;;;;;10.82;69.19;97132.63;4954034;29;19915;-66
2023/04/12 08:04:15;;;;;;;;;;;;;;;10.85;68.71;97132.38;4954037;29;19921;-66
2023/04/12 08:06:41;;;;;;;;;;;;;;;10.91;68.44;97121.34;4953638;28;19915;-66
2023/04/12 08:09:06;;;;;;;;;;;;;;;10.99;69.22;97118.88;4952889;29;20190;-66
2023/04/12 08:11:34;;;;;;;;;;;;;;;11.10;68.84;97123.19;4953843;29;19925;-67
2023/04/12 08:13:59;;;;;;;;;;;;;;;11.22;68.65;97124.72;4953876;28;19958;-66
2023/04/12 08:16:24;;;;;;;;;;;;;;;11.32;68.88;97119.47;4936519;29;19950;-67
2023/04/12 08:18:49;;;;;;;;;;;;;;;11.35;69.02;97109.53;4953707;29;19954;-66
2023/04/12 08:21:15;;;;;;;;;;;;;;;11.40;68.91;97107.34;4953734;29;19918;-66
2023/04/12 08:23:40;;;;;;;;;;;;;;;11.46;68.59;97102.50;4952631;29;19915;-66
2023/04/12 08:26:05;;;;;;;;;;;;;;;11.50;68.66;97106.53;4953805;28;19922;-66
2023/04/12 08:28:31;;;;;;;;;;;;;;;11.58;68.06;97099.59;4954219;28;19962;-66
2023/04/12 08:30:57;;;;;;;;;;;;;;;11.65;68.83;97094.63;4957660;28;19914;-66
2023/04/12 08:33:23;;;;;;;;;;;;;;;11.65;68.52;97090.19;4956184;29;20007;-66
2023/04/12 08:35:48;;;;;;;;;;;;;;;11.67;67.98;97091.88;4956078;28;20054;-67
2023/04/12 08:38:13;;;;;;;;;;;;;;;11.68;69.44;97098.78;4955867;29;19921;-66
2023/04/12 08:40:40;;;;;;;;;;;;;;;11.69;68.54;97085.50;4957256;29;19915;-66
2023/04/12 08:43:06;;;;;;;;;;;;;;;11.73;69.00;97086.03;4956061;29;20281;-66
2023/04/12 08:45:31;;;;;;;;;;;;;;;11.77;69.44;97079.56;4955972;29;19921;-66
2023/04/12 08:47:57;;;;;;;;;;;;;;;11.78;69.15;97071.53;4955641;28;19918;-67
2023/04/12 08:50:22;;;;;;;;;;;;;;;11.76;68.60;97067.38;4939827;29;19914;-66
2023/04/12 08:52:47;;;;;;;;;;;;;;;11.75;68.60;97070.97;4939752;29;19926;-66
2023/04/12 08:55:13;;;;;;;;;;;;;;;11.77;69.02;97053.31;4955888;29;19915;-66
2023/04/12 08:57:39;;;;;;;;;;;;;;;11.78;68.91;97047.88;4955556;28;19915;-66
2023/04/12 09:00:04;;;;;;;;;;;;;;;11.83;68.36;97050.09;4955760;29;19915;-66
2023/04/12 09:02:30;;;;;;;;;;;;;;;11.85;69.51;97040.31;4955460;29;20340;-66
2023/04/12 09:04:55;;;;;;;;;;;;;;;11.83;69.29;97035.16;4955904;29;19919;-66
2023/04/12 09:07:26;;;;;;;;;;;;;;;11.80;69.07;97034.59;4956812;28;19914;-67
2023/04/12 09:09:51;;;;;;;;;;;;;;;11.65;68.48;97024.53;4940401;29;19967;-66
2023/04/12 09:12:19;;;;;;;;;;;;;;;11.55;69.08;97026.34;4956621;29;19962;-67
2023/04/12 09:14:44;;;;;;;;;;;;;;;11.48;69.85;97025.25;4956730;28;19914;-66
2023/04/12 09:17:22;;;;;;;;;;;;;;;11.41;69.74;97014.47;4956354;28;19915;-66
2023/04/12 09:19:47;;;;;;;;;;;;;;;11.36;70.54;97010.63;4955249;29;20001;-66
2023/04/12 09:22:12;;;;;;;;;;;;;;;11.31;70.66;97007.56;4956643;29;20013;-66
2023/04/12 09:24:44;;;;;;;;;;;;;;;11.27;70.51;97011.44;4956482;29;19915;-66
2023/04/12 09:27:09;;;;;;;;;;;;;;;11.22;70.75;96997.91;4956264;28;19915;-66
2023/04/12 09:29:35;;;;;;;;;;;;;;;11.19;71.27;96988.53;4955286;29;20402;-67
2023/04/12 09:32:04;;;;;;;;;;;;;;;11.16;72.37;96984.38;4956395;28;19922;-66
2023/04/12 09:34:29;;;;;;;;;;;;;;;11.20;72.54;96978.84;4955097;29;19918;-66
2023/04/12 09:36:55;;;;;;;;;;;;;;;11.23;71.97;96973.34;4954792;28;19919;-66
2023/04/12 09:39:29;;;;;;;;;;;;;;;11.23;71.63;96973.34;4956178;28;19925;-66
2023/04/12 09:42:02;;;;;;;;;;;;;;;11.23;71.25;96963.66;4955095;29;19921;-66
2023/04/12 09:44:31;;;;;;;;;;;;;;;11.21;71.84;96954.25;4956060;28;19918;-66
2023/04/12 09:46:59;;;;;;;;;;;;;;;11.23;71.54;96952.34;4955813;28;19925;-66
2023/04/12 09:49:54;;;;;;;;;;;;;;;11.25;71.70;96945.13;4956127;28;20380;-66
2023/04/12 09:52:19;;;;;;;;;;;;;;;11.28;72.33;96944.84;4934376;29;20005;-66
2023/04/12 09:54:46;;;;;;;;;;;;;;;11.30;71.43;96953.44;4918762;29;20002;-66
2023/04/12 09:57:12;;;;;;;;;;;;;;;11.31;72.31;96950.66;4918469;29;19915;-67
2023/04/12 09:59:38;;;;;;;;;;;;;;;11.30;71.70;96953.44;4934368;29;19921;-66
2023/04/12 10:02:04;;;;;;;;;;;;;;;11.29;71.29;96943.91;4934274;29;19919;-66
2023/04/12 10:04:30;;;;;;;;;;;;;;;11.29;70.75;96941.28;4918531;29;19915;-67
2023/04/12 10:06:57;;;;;;;;;;;;;;;11.36;71.39;96942.38;4934148;29;19989;-66
2023/04/12 10:09:22;;;;;;;;;;;;;;;11.45;71.12;96935.44;4918311;29;19938;-66
2023/04/12 10:11:47;;;;;;;;;;;;;;;11.59;70.62;96929.72;4934131;29;20001;-66
2023/04/12 10:14:12;;;;;;;;;;;;;;;11.81;71.03;96932.03;4934083;29;20042;-67
2023/04/12 10:16:38;;;;;;;;;;;;;;;12.07;70.32;96921.69;4918127;29;19922;-66
2023/04/12 10:19:03;;;;;;;;;;;;;;;12.33;70.03;96927.09;4918276;29;19922;-67
2023/04/12 10:21:29;;;;;;;;;;;;;;;12.50;69.32;96922.84;4934069;29;20270;-66
2023/04/12 10:23:54;;;;;;;;;;;;;;;12.57;69.40;96912.56;4934021;29;19915;-67
2023/04/12 10:26:19;;;;;;;;;;;;;;;12.58;68.46;96909.78;4933883;29;19932;-66
2023/04/12 10:28:46;;;;;;;;;;;;;;;12.52;69.52;96899.84;4935001;29;19925;-67
2023/04/12 10:31:29;;;;;;;;;;;;;;;12.49;69.40;96894.91;4954131;29;19914;-67
2023/04/12 10:33:54;;;;;;;;;;;;;;;12.56;69.16;96889.88;4955188;28;20376;-66
2023/04/12 10:36:19;;;;;;;;;;;;;;;12.59;68.44;96876.41;4953954;28;19921;-67
2023/04/12 10:38:45;;;;;;;;;;;;;;;12.72;68.56;96881.31;4954936;28;19922;-67
2023/04/12 10:41:13;;;;;;;;;;;;;;;12.94;67.86;96877.38;4954118;29;19922;-66
2023/04/12 10:43:39;;;;;;;;;;;;;;;13.06;68.07;96879.63;4955149;29;19921;-67
2023/04/12 10:46:05;;;;;;;;;;;;;;;13.17;67.89;96880.34;4954986;28;19914;-67
2023/04/12 10:48:30;;;;;;;;;;;;;;;13.33;67.53;96874.41;4954715;28;20303;-67
2023/04/12 10:51:28;;;;;;;;;;;;;;;13.42;66.87;96855.03;4954569;28;20001;-67
2023/04/12 10:54:13;;;;;;;;;;;;;;;13.48;67.27;96849.97;4933231;29;20005;-67
2023/04/12 10:56:48;;;;;;;;;;;;;;;13.47;67.00;96848.31;4933111;29;19922;-65
2023/04/12 10:59:13;;;;;;;;;;;;;;;13.35;67.95;96854.84;4917462;29;19922;-67
2023/04/12 11:01:38;;;;;;;;;;;;;;;13.28;67.88;96859.06;4917309;29;20297;-67
2023/04/12 11:04:03;;;;;;;;;;;;;;;13.24;67.06;96847.19;4901414;29;19914;-66
2023/04/12 11:06:50;;;;;;;;;;;;;;;13.20;67.46;96853.72;4933096;29;19915;-67
2023/04/12 11:09:16;;;;;;;;;;;;;;;13.03;68.47;96856.22;4917685;29;19919;-66
2023/04/12 11:11:41;;;;;;;;;;;;;;;12.90;68.94;96861.06;4917163;29;19915;-66
2023/04/12 11:14:08;;;;;;;;;;;;;;;12.84;69.02;96853.81;4916996;29;19926;-66
2023/04/12 11:16:33;;;;;;;;;;;;;;;12.77;70.13;96839.59;4932810;29;19954;-67
2023/04/12 11:18:59;;;;;;;;;;;;;;;12.77;69.41;96834.34;4916944;29;19919;-67
2023/04/12 11:21:24;;;;;;;;;;;;;;;12.81;69.67;96836.50;4917169;29;19922;-67
2023/04/12 11:23:49;;;;;;;;;;;;;;;12.80;69.44;96841.91;4917087;29;19915;-66
2023/04/12 11:26:21;;;;;;;;;;;;;;;12.66;70.38;96842.44;4901115;29;19919;-67
2023/04/12 11:28:49;;;;;;;;;;;;;;;12.57;71.37;96845.00;4932550;29;19970;-67
2023/04/12 11:31:14;;;;;;;;;;;;;;;12.27;70.93;96848.81;4952440;29;19914;-67
2023/04/12 11:33:40;;;;;;;;;;;;;;;12.25;71.56;96844.69;4952619;29;19926;-66
2023/04/12 11:36:06;;;;;;;;;;;;;;;12.09;71.85;96843.53;4952861;28;19918;-67
2023/04/12 11:38:31;;;;;;;;;;;;;;;12.11;71.05;96844.25;4936792;29;20307;-67
2023/04/12 11:40:57;;;;;;;;;;;;;;;12.22;71.76;96826.59;4952930;29;19921;-66
2023/04/12 11:43:22;;;;;;;;;;;;;;;12.27;71.92;96834.84;4952707;29;19922;-66
2023/04/12 11:45:47;;;;;;;;;;;;;;;12.19;71.85;96835.59;4953932;28;19918;-66
2023/04/12 11:48:12;;;;;;;;;;;;;;;12.12;72.79;96826.66;4953898;29;19922;-66
2023/04/12 11:50:39;;;;;;;;;;;;;;;12.21;72.53;96817.03;4953959;29;19914;-66
2023/04/12 11:53:14;;;;;;;;;;;;;;;12.37;72.50;96811.13;4952789;29;19973;-67
2023/04/12 11:55:40;;;;;;;;;;;;;;;12.49;71.91;96791.50;4937014;28;20388;-67
2023/04/12 11:58:05;;;;;;;;;;;;;;;12.51;71.83;96800.06;4952491;29;19919;-67
2023/04/12 12:00:31;;;;;;;;;;;;;;;12.28;71.80;96803.16;4953995;28;20006;-67
2023/04/12 12:02:56;;;;;;;;;;;;;;;12.32;71.48;96795.81;4952771;28;20382;-67
2023/04/12 12:05:22;;;;;;;;;;;;;;;12.42;71.51;96791.31;4956474;29;19914;-66
2023/04/12 12:07:47;;;;;;;;;;;;;;;12.45;71.60;96788.34;4956347;28;20269;-67
2023/04/12 12:10:12;;;;;;;;;;;;;;;12.50;71.99;96796.63;4957809;29;20054;-67
2023/04/12 12:12:37;;;;;;;;;;;;;;;12.56;71.58;96797.84;4956368;29;20017;-67
2023/04/12 12:15:03;;;;;;;;;;;;;;;12.54;72.63;96797.97;4956470;29;20001;-67
2023/04/12 12:17:28;;;;;;;;;;;;;;;12.45;72.87;96798.03;4957366;28;20017;-67
2023/04/12 12:19:55;;;;;;;;;;;;;;;12.22;73.82;96792.44;4957532;29;19915;-67
2023/04/12 12:22:20;;;;;;;;;;;;;;;12.15;73.41;96780.84;4940406;29;19922;-67
2023/04/12 12:24:46;;;;;;;;;;;;;;;12.29;73.69;96778.53;4957529;28;19918;-66
2023/04/12 12:27:12;;;;;;;;;;;;;;;12.51;73.08;96769.34;4955849;28;19914;-66
2023/04/12 12:29:37;;;;;;;;;;;;;;;12.71;72.63;96766.53;4957446;28;19914;-67
2023/04/12 12:32:09;;;;;;;;;;;;;;;12.91;72.19;96757.47;4956158;29;19937;-67
2023/04/12 12:34:34;;;;;;;;;;;;;;;13.15;71.72;96750.72;4956143;29;20344;-67
2023/04/12 12:37:00;;;;;;;;;;;;;;;13.39;71.26;96737.69;4955895;28;19945;-67
2023/04/12 12:39:25;;;;;;;;;;;;;;;13.47;71.34;96729.81;4957281;28;20384;-67
2023/04/12 12:41:55;;;;;;;;;;;;;;;13.45;71.49;96726.50;4957089;28;19914;-66
2023/04/12 12:44:20;;;;;;;;;;;;;;;13.46;71.23;96704.47;4956019;29;19915;-67
2023/04/12 12:46:46;;;;;;;;;;;;;;;13.53;70.33;96717.81;4955590;28;19929;-67
2023/04/12 12:49:11;;;;;;;;;;;;;;;13.58;70.62;96712.06;4955936;29;19915;-66
2023/04/12 12:51:37;;;;;;;;;;;;;;;13.63;70.66;96709.78;4957022;28;19915;-67
2023/04/12 12:54:02;;;;;;;;;;;;;;;13.63;70.14;96707.16;4955678;29;19918;-67
2023/04/12 12:56:27;;;;;;;;;;;;;;;13.64;70.12;96716.69;4955733;28;20025;-66
2023/04/12 12:58:52;;;;;;;;;;;;;;;13.67;70.71;96709.28;4956763;29;20005;-67
2023/04/12 13:01:17;;;;;;;;;;;;;;;13.67;71.31;96714.56;4956831;29;20042;-67
2023/04/12 13:03:43;;;;;;;;;;;;;;;13.56;71.24;96714.03;4956736;29;19957;-67
2023/04/12 13:06:08;;;;;;;;;;;;;;;13.60;71.07;96705.66;4956744;28;19921;-67
2023/04/12 13:08:35;;;;;;;;;;;;;;;13.56;71.61;96714.03;4956596;29;19915;-66
2023/04/12 13:11:00;;;;;;;;;;;;;;;13.71;70.96;96701.88;4955516;29;19937;-67
2023/04/12 13:13:25;;;;;;;;;;;;;;;13.84;70.34;96702.25;4956557;29;20387;-67
2023/04/12 13:15:51;;;;;;;;;;;;;;;13.82;70.35;96698.94;4939041;28;19972;-66
2023/04/12 13:18:16;;;;;;;;;;;;;;;13.84;70.05;96696.97;4956439;28;20001;-67
2023/04/12 13:20:42;;;;;;;;;;;;;;;13.82;70.38;96696.31;4956468;29;19915;-67
2023/04/12 13:23:07;;;;;;;;;;;;;;;13.68;70.29;96691.66;4955234;29;19915;-67
2023/04/12 13:25:35;;;;;;;;;;;;;;;13.58;70.39;96696.25;4956305;29;20399;-66
2023/04/12 13:28:00;;;;;;;;;;;;;;;13.49;71.31;96687.53;4955053;29;20511;-67
2023/04/12 13:30:25;;;;;;;;;;;;;;;13.46;71.17;96672.03;4956310;29;20001;-67
2023/04/12 13:32:51;;;;;;;;;;;;;;;13.49;71.20;96677.81;4956205;29;19989;-67
2023/04/12 13:35:16;;;;;;;;;;;;;;;13.68;70.49;96665.31;4955077;29;20410;-67
2023/04/12 13:37:42;;;;;;;;;;;;;;;14.06;68.93;96663.06;4955972;28;19921;-67
2023/04/12 13:40:07;;;;;;;;;;;;;;;14.87;66.62;96654.25;4956002;29;20001;-67
2023/04/12 13:42:32;;;;;;;;;;;;;;;15.66;66.28;96652.44;4956018;29;19914;-67
2023/04/12 13:44:58;;;;;;;;;;;;;;;15.56;65.78;96655.28;4956028;29;19960;-67
2023/04/12 13:47:23;;;;;;;;;;;;;;;15.53;64.90;96660.09;4954385;28;19919;-66
2023/04/12 13:49:48;;;;;;;;;;;;;;;15.39;65.43;96657.19;4955994;29;19915;-67
2023/04/12 13:52:13;;;;;;;;;;;;;;;15.20;65.45;96665.50;4955927;29;19921;-67
2023/04/12 13:54:39;;;;;;;;;;;;;;;14.94;66.09;96661.31;4955708;29;20364;-65
2023/04/12 13:57:05;;;;;;;;;;;;;;;14.84;66.14;96651.97;4955619;28;19973;-67
2023/04/12 13:59:30;;;;;;;;;;;;;;;14.86;65.96;96656.06;4955810;29;20308;-66
2023/04/12 14:01:55;;;;;;;;;;;;;;;14.85;66.86;96643.84;4955757;29;19918;-66
2023/04/12 14:04:20;;;;;;;;;;;;;;;14.80;67.03;96635.63;4954804;29;19977;-67
2023/04/12 14:06:45;;;;;;;;;;;;;;;14.71;67.69;96628.72;4955528;28;19918;-67
2023/04/12 14:09:21;;;;;;;;;;;;;;;14.62;67.89;96622.63;4955568;29;19969;-66
2023/04/12 14:11:46;;;;;;;;;;;;;;;14.54;68.56;96635.03;4954403;29;19918;-66
2023/04/12 14:14:12;;;;;;;;;;;;;;;14.35;68.56;96630.91;4955580;29;20018;-66
2023/04/12 14:16:37;;;;;;;;;;;;;;;14.32;68.63;96640.00;4955407;28;19949;-66
2023/04/12 14:19:02;;;;;;;;;;;;;;;14.24;69.03;96646.06;4955287;29;19915;-66
2023/04/12 14:21:28;;;;;;;;;;;;;;;14.32;68.95;96626.00;4955488;29;19922;-66
2023/04/12 14:23:53;;;;;;;;;;;;;;;14.35;68.76;96621.19;4955233;28;19918;-66
2023/04/12 14:26:18;;;;;;;;;;;;;;;14.33;69.32;96603.88;4954572;28;19921;-66
2023/04/12 14:28:44;;;;;;;;;;;;;;;14.32;69.89;96600.44;4955206;29;19938;-66
2023/04/12 14:31:09;;;;;;;;;;;;;;;14.29;69.84;96600.75;4955140;29;20046;-66
2023/04/12 14:33:34;;;;;;;;;;;;;;;14.12;69.55;96622.88;4955201;28;19918;-67
2023/04/12 14:36:03;;;;;;;;;;;;;;;14.18;69.08;96619.56;4955093;28;19937;-66
2023/04/12 14:38:28;;;;;;;;;;;;;;;14.41;68.55;96614.41;4953596;29;20017;-66
2023/04/12 14:40:54;;;;;;;;;;;;;;;14.69;67.79;96612.22;4955016;29;20377;-64
2023/04/12 14:43:19;;;;;;;;;;;;;;;15.58;65.44;96612.81;4955054;29;20411;-66
2023/04/12 14:45:44;;;;;;;;;;;;;;;15.60;65.86;96614.28;4955120;28;19993;-66
2023/04/12 14:48:09;;;;;;;;;;;;;;;15.84;64.79;96602.75;4954616;29;19918;-67
2023/04/12 14:50:35;;;;;;;;;;;;;;;17.25;61.19;96583.44;4953682;29;19946;-66
2023/04/12 14:53:00;;;;;;;;;;;;;;;19.14;56.41;96579.22;4954706;28;20299;-66
2023/04/12 14:55:25;;;;;;;;;;;;;;;19.99;53.88;96579.63;4955093;29;19970;-66
2023/04/12 14:57:51;;;;;;;;;;;;;;;20.76;50.47;96582.69;4954846;28;19972;-66
2023/04/12 15:00:16;;;;;;;;;;;;;;;20.50;49.33;96576.38;4954834;29;19915;-67
2023/04/12 15:02:43;;;;;;;;;;;;;;;19.82;51.20;96578.41;4954683;29;19915;-66
2023/04/12 15:05:08;;;;;;;;;;;;;;;19.37;50.95;96588.69;4953589;29;19919;-66
2023/04/12 15:07:33;;;;;;;;;;;;;;;18.89;52.34;96578.94;4954391;28;19938;-66
2023/04/12 15:09:59;;;;;;;;;;;;;;;18.71;53.07;96574.09;4954698;29;19914;-66
2023/04/12 15:12:25;;;;;;;;;;;;;;;19.13;52.34;96564.31;4953380;29;19914;-66
2023/04/12 15:14:52;;;;;;;;;;;;;;;19.04;52.58;96562.03;4951446;28;20078;-70
2023/04/12 15:17:17;;;;;;;;;;;;;;;19.05;51.42;96561.81;4939674;28;20490;-66
2023/04/12 15:19:43;;;;;;;;;;;;;;;18.74;52.64;96555.13;4942625;29;19925;-66
2023/04/12 15:22:08;;;;;;;;;;;;;;;18.32;53.58;96558.72;4952804;28;19914;-66
2023/04/12 15:24:33;;;;;;;;;;;;;;;18.29;54.68;96559.13;4953401;29;20447;-66
2023/04/12 15:26:58;;;;;;;;;;;;;;;18.32;54.02;96563.22;4949709;28;19937;-66
2023/04/12 15:29:26;;;;;;;;;;;;;;;18.12;53.67;96555.94;4952381;29;20013;-66
2023/04/12 15:31:52;;;;;;;;;;;;;;;17.81;54.79;96558.13;4969421;28;20291;-66
2023/04/12 15:34:17;;;;;;;;;;;;;;;17.61;55.54;96548.13;4966221;28;19925;-67
2023/04/12 15:36:42;;;;;;;;;;;;;;;17.30;57.26;96551.88;4972574;28;20337;-67
2023/04/12 15:39:08;;;;;;;;;;;;;;;17.11;57.86;96541.91;4972922;28;19914;-68
2023/04/12 15:41:36;;;;;;;;;;;;;;;16.97;58.20;96542.75;4971682;28;19924;-67
2023/04/12 15:44:01;;;;;;;;;;;;;;;16.86;58.89;96538.72;4971325;28;19921;-66
2023/04/12 15:46:26;;;;;;;;;;;;;;;16.94;58.47;96532.53;4951353;28;19927;-67
2023/04/12 15:48:51;;;;;;;;;;;;;;;16.95;58.92;96536.81;4953401;29;19914;-66
2023/04/12 15:51:17;;;;;;;;;;;;;;;16.77;59.44;96530.09;4959380;28;19914;-67
2023/04/12 15:53:42;;;;;;;;;;;;;;;16.57;60.44;96528.97;4952221;29;19918;-66
2023/04/12 15:56:08;;;;;;;;;;;;;;;16.46;61.24;96524.97;4953354;28;20380;-66
2023/04/12 15:58:33;;;;;;;;;;;;;;;16.42;61.13;96531.63;4943024;28;20556;-67
2023/04/12 16:00:59;;;;;;;;;;;;;;;16.43;61.60;96519.22;4940682;28;19926;-67
2023/04/12 16:03:24;;;;;;;;;;;;;;;16.54;61.61;96518.75;4941053;29;20000;-69
2023/04/12 16:05:53;;;;;;;;;;;;;;;16.52;61.82;96521.59;4951942;28;19965;-66
2023/04/12 16:08:19;;;;;;;;;;;;;;;16.53;61.66;96517.94;4951101;28;19969;-65
2023/04/12 16:10:44;;;;;;;;;;;;;;;16.44;62.05;96519.03;4950850;28;19965;-66
2023/04/12 16:13:09;;;;;;;;;;;;;;;16.44;62.12;96515.56;4951763;29;19975;-65
2023/04/12 16:15:35;;;;;;;;;;;;;;;16.41;61.67;96503.50;4950955;28;19962;-66
2023/04/12 16:18:00;;;;;;;;;;;;;;;16.21;62.23;96513.84;4950881;29;19914;-68
2023/04/12 16:20:25;;;;;;;;;;;;;;;16.05;62.97;96504.25;4951361;29;19922;-65
2023/04/12 16:22:53;;;;;;;;;;;;;;;15.84;63.68;96504.94;4942778;28;19953;-65
2023/04/12 16:25:19;;;;;;;;;;;;;;;15.66;63.96;96502.63;4964959;28;19926;-65
2023/04/12 16:27:44;;;;;;;;;;;;;;;15.48;64.80;96506.53;4950249;28;19915;-66
2023/04/12 16:30:10;;;;;;;;;;;;;;;15.33;64.93;96522.34;4951337;28;20285;-67
2023/04/12 16:32:36;;;;;;;;;;;;;;;15.10;65.75;96514.38;4951831;28;20290;-68
2023/04/12 16:35:01;;;;;;;;;;;;;;;14.92;66.79;96512.00;4952104;28;19995;-66
2023/04/12 16:37:26;;;;;;;;;;;;;;;14.76;67.76;96507.63;4962320;28;19923;-65
2023/04/12 16:39:52;;;;;;;;;;;;;;;14.60;68.72;96511.19;4950871;29;19915;-68
2023/04/12 16:42:20;;;;;;;;;;;;;;;14.54;68.52;96518.97;4950603;29;19930;-67
2023/04/12 16:44:45;;;;;;;;;;;;;;;14.37;69.78;96513.69;4952540;28;19914;-66
2023/04/12 16:47:10;;;;;;;;;;;;;;;14.23;71.31;96522.31;4951496;28;19919;-67
2023/04/12 16:49:36;;;;;;;;;;;;;;;14.08;71.18;96508.19;4952704;28;19918;-67
2023/04/12 16:52:01;;;;;;;;;;;;;;;13.87;68.54;96512.19;4955223;29;19915;-66
2023/04/12 16:54:26;;;;;;;;;;;;;;;13.69;68.76;96509.72;4954647;29;20016;-66
2023/04/12 16:56:52;;;;;;;;;;;;;;;13.43;68.29;96503.81;4952284;28;20044;-66
2023/04/12 16:59:17;;;;;;;;;;;;;;;13.11;70.03;96509.81;4958718;28;19926;-66
2023/04/12 17:01:43;;;;;;;;;;;;;;;12.87;71.84;96502.69;4953934;28;19981;-67
2023/04/12 17:04:09;;;;;;;;;;;;;;;12.64;72.33;96521.72;4955283;28;19967;-67
2023/04/12 17:06:34;;;;;;;;;;;;;;;12.51;74.83;96526.59;4954303;28;19918;-67
2023/04/12 17:09:00;;;;;;;;;;;;;;;12.40;75.83;96535.59;4955384;29;19921;-67
2023/04/12 17:11:25;;;;;;;;;;;;;;;12.24;76.83;96538.13;4954539;29;19915;-67
2023/04/12 17:13:51;;;;;;;;;;;;;;;12.04;79.79;96554.13;4954444;29;19918;-67
2023/04/12 17:16:16;;;;;;;;;;;;;;;12.05;79.17;96547.06;4953906;28;19914;-67
2023/04/12 17:18:42;;;;;;;;;;;;;;;12.18;78.55;96550.09;4954339;28;19919;-68
2023/04/12 17:21:07;;;;;;;;;;;;;;;12.20;79.02;96545.50;4954462;28;19926;-67
2023/04/12 17:23:33;;;;;;;;;;;;;;;12.38;78.57;96540.16;4954565;28;19923;-65
2023/04/12 17:25:58;;;;;;;;;;;;;;;12.49;77.59;96552.19;4953766;28;19923;-65
2023/04/12 17:28:24;;;;;;;;;;;;;;;12.47;77.96;96554.19;4953814;28;20356;-65
2023/04/12 17:30:50;;;;;;;;;;;;;;;12.39;78.45;96559.38;4955071;28;20005;-65
2023/04/12 17:33:17;;;;;;;;;;;;;;;12.30;79.28;96553.28;4954028;29;20010;-66
2023/04/12 17:35:42;;;;;;;;;;;;;;;12.05;79.75;96571.53;4954924;28;20309;-66
2023/04/12 17:38:07;;;;;;;;;;;;;;;12.08;80.27;96565.97;4967971;28;19942;-69
2023/04/12 17:40:33;;;;;;;;;;;;;;;12.02;80.42;96558.69;4954142;29;19957;-69
2023/04/12 17:42:58;;;;;;;;;;;;;;;11.91;80.65;96553.69;4954465;28;19915;-68
2023/04/12 17:45:24;;;;;;;;;;;;;;;11.98;79.56;96559.97;4954860;28;20354;-67
2023/04/12 17:47:49;;;;;;;;;;;;;;;11.90;79.92;96557.28;4954283;28;19926;-68
2023/04/12 17:50:15;;;;;;;;;;;;;;;11.78;79.89;96575.06;4954126;28;20392;-65
2023/04/12 17:52:41;;;;;;;;;;;;;;;11.71;79.03;96573.22;4954722;29;19919;-66
2023/04/12 17:55:08;;;;;;;;;;;;;;;11.62;78.66;96575.75;4955111;28;19922;-65
2023/04/12 17:57:33;;;;;;;;;;;;;;;11.50;79.66;96574.34;4945909;28;19919;-65
2023/04/12 17:59:58;;;;;;;;;;;;;;;11.48;79.89;96583.34;4944177;28;20610;-65
2023/04/12 18:02:23;;;;;;;;;;;;;;;11.34;80.49;96593.38;4941743;28;19926;-64
2023/04/12 18:04:49;;;;;;;;;;;;;;;11.29;80.71;96595.63;4956861;28;19962;-69
2023/04/12 18:07:15;;;;;;;;;;;;;;;11.26;79.27;96603.81;4951819;28;20247;-65
2023/04/12 18:09:44;;;;;;;;;;;;;;;11.14;78.18;96597.94;4953847;28;19918;-66
2023/04/12 18:12:09;;;;;;;;;;;;;;;10.98;78.99;96603.00;4954145;29;20363;-66
2023/04/12 18:14:35;;;;;;;;;;;;;;;10.98;78.76;96602.16;4954140;29;19922;-66
2023/04/12 18:17:01;;;;;;;;;;;;;;;10.90;79.04;96608.16;4954193;28;19982;-65
2023/04/12 18:19:26;;;;;;;;;;;;;;;10.79;78.07;96618.84;4952582;28;19927;-67
2023/04/12 18:21:52;;;;;;;;;;;;;;;10.68;79.87;96617.22;4954089;28;19914;-67
2023/04/12 18:24:17;;;;;;;;;;;;;;;10.64;79.77;96623.75;4951111;28;19918;-65
2023/04/12 18:26:43;;;;;;;;;;;;;;;10.62;79.69;96634.34;4955154;28;19929;-65
2023/04/12 18:29:11;;;;;;;;;;;;;;;10.62;79.83;96644.84;4955231;28;19922;-66